Terminal Aerodrome Forecast
Issued by NWS

Home | Current Version | Previous Version | Text Only | Print | Product List | Glossary On
Versions: 1 2 3 4 5 6 7 8 9 10 11 12 13 14 15 16
000
FTUS42 KTBW 210500
TAFLAL
TAF
KLAL 210531Z 2106/2206 00000KT P6SM FEW020 SCT250
     FM211300 00000KT P6SM VCSH SCT030 BKN250
     FM211500 VRB03KT P6SM VCTS SCT030CB BKN080
     FM220000 20007KT P6SM VCTS SCT035CB BKN060
     FM220300 VRB03KT P6SM SCT040 BKN060
      AMD NOT SKED TIL 211200=

USA.gov is the U.S. government's official web portal to all federal, state and local government web resources and services.